createdAt,value
2018-06-14T00:00:54.204Z,96.30
2018-06-14T00:05:50.892Z,96.80
2018-06-14T00:08:19.344Z,96.70
2018-06-14T00:10:47.826Z,96.90
2018-06-14T00:13:16.261Z,96.90
2018-06-14T00:15:44.778Z,96.80
2018-06-14T00:18:13.239Z,96.90
2018-06-14T00:20:41.672Z,96.80
2018-06-14T00:23:10.146Z,96.80
2018-06-14T00:25:38.632Z,96.70
2018-06-14T00:28:07.113Z,96.80
2018-06-14T00:30:35.561Z,96.70
2018-06-14T00:33:04.042Z,96.60
2018-06-14T00:35:32.474Z,96.50
2018-06-14T00:38:00.955Z,96.80
2018-06-14T00:40:29.458Z,96.80
2018-06-14T00:42:57.981Z,96.50
2018-06-14T00:45:26.406Z,96.90
2018-06-14T00:47:54.837Z,96.80
2018-06-14T00:50:23.325Z,96.60
2018-06-14T00:52:51.787Z,96.80
2018-06-14T00:55:20.271Z,97.00
2018-06-14T00:57:48.694Z,96.80
2018-06-14T01:00:17.184Z,96.90
2018-06-14T01:02:45.633Z,96.90
2018-06-14T01:05:14.072Z,97.10
2018-06-14T01:07:42.558Z,97.10
2018-06-14T01:10:11.068Z,97.00
2018-06-14T01:12:39.513Z,96.70
2018-06-14T01:15:08.025Z,97.40
2018-06-14T01:17:36.460Z,97.30
2018-06-14T01:20:05.257Z,97.30
2018-06-14T01:22:33.764Z,97.40
2018-06-14T01:25:02.234Z,97.50
2018-06-14T01:27:30.691Z,97.40
2018-06-14T01:29:59.225Z,97.70
2018-06-14T01:32:27.674Z,97.60
2018-06-14T01:34:56.129Z,97.40
2018-06-14T01:37:35.788Z,97.70
2018-06-14T01:40:04.250Z,97.70
2018-06-14T01:42:32.688Z,97.70
2018-06-14T01:45:01.136Z,97.70
2018-06-14T01:47:29.758Z,97.60
2018-06-14T01:49:58.224Z,97.70
2018-06-14T01:52:26.768Z,97.80
2018-06-14T01:54:55.291Z,97.70
2018-06-14T01:57:23.736Z,97.50
2018-06-14T01:59:52.372Z,97.60
2018-06-14T02:02:20.877Z,97.60
2018-06-14T02:04:49.312Z,97.60
2018-06-14T02:07:17.785Z,97.60
2018-06-14T02:09:46.232Z,97.60
2018-06-14T02:12:14.677Z,97.90
2018-06-14T02:14:43.199Z,97.90
2018-06-14T02:17:11.665Z,98.00
2018-06-14T02:19:40.096Z,98.10
2018-06-14T02:24:36.743Z,98.30
2018-06-14T02:27:05.265Z,97.90
2018-06-14T02:29:33.786Z,98.30
2018-06-14T02:32:02.353Z,98.30
2018-06-14T02:34:30.809Z,98.30
2018-06-14T02:36:59.312Z,98.40
2018-06-14T02:39:27.744Z,98.30
2018-06-14T02:41:56.213Z,98.40
2018-06-14T02:44:24.741Z,98.00
2018-06-14T02:46:53.190Z,98.50
2018-06-14T02:49:21.690Z,98.70
2018-06-14T02:51:50.115Z,98.80
2018-06-14T02:54:18.566Z,98.70
2018-06-14T02:56:47.063Z,99.00
2018-06-14T02:59:15.524Z,99.20
2018-06-14T03:01:44.098Z,98.90
2018-06-14T03:04:12.508Z,98.80
2018-06-14T03:06:40.925Z,99.20
2018-06-14T03:09:10.009Z,99.20
2018-06-14T03:11:38.445Z,98.90
2018-06-14T03:14:08.006Z,99.20
2018-06-14T03:16:36.470Z,99.30
2018-06-14T03:19:04.929Z,98.90
2018-06-14T03:21:33.388Z,99.10
2018-06-14T03:24:01.852Z,99.50
2018-06-14T03:26:30.305Z,99.30
2018-06-14T03:28:58.758Z,99.00
2018-06-14T03:31:27.231Z,99.10
2018-06-14T03:33:55.764Z,99.30
2018-06-14T03:36:24.257Z,99.00
2018-06-14T03:38:52.697Z,99.30
2018-06-14T03:41:21.167Z,99.00
2018-06-14T03:43:49.661Z,99.50
2018-06-14T03:46:18.105Z,99.30
2018-06-14T03:48:46.519Z,99.20
2018-06-14T03:51:15.018Z,99.50
2018-06-14T03:53:43.534Z,99.40
2018-06-14T03:56:11.996Z,99.40
2018-06-14T03:58:40.428Z,99.50
2018-06-14T04:01:08.945Z,99.50
2018-06-14T04:03:37.368Z,99.00
2018-06-14T04:06:05.896Z,99.40
2018-06-14T04:08:34.369Z,99.30
2018-06-14T04:11:02.785Z,99.60
2018-06-14T04:13:31.262Z,99.40
2018-06-14T04:15:59.835Z,99.40
2018-06-14T04:18:28.343Z,99.50
2018-06-14T04:20:56.757Z,99.70
2018-06-14T04:23:25.204Z,99.20
2018-06-14T04:25:53.726Z,99.70
2018-06-14T04:28:22.157Z,99.80
2018-06-14T04:30:50.568Z,99.80
2018-06-14T04:33:19.141Z,99.70
2018-06-14T04:35:47.603Z,99.50
2018-06-14T04:38:15.992Z,99.10
2018-06-14T04:40:44.447Z,99.20
2018-06-14T04:43:12.824Z,99.50
2018-06-14T04:45:41.224Z,99.50
2018-06-14T04:48:09.629Z,99.70
2018-06-14T04:50:38.008Z,99.60
2018-06-14T04:53:06.380Z,99.30
2018-06-14T05:06:58.563Z,99.00
2018-06-14T05:09:27.180Z,99.80
2018-06-14T05:11:55.676Z,99.90
2018-06-14T05:14:24.282Z,99.70
2018-06-14T05:16:53.153Z,99.70
2018-06-14T05:19:21.726Z,99.70
2018-06-14T05:21:50.312Z,99.40
2018-06-14T05:24:19.013Z,99.70
2018-06-14T05:26:47.478Z,99.60
2018-06-14T05:29:15.990Z,99.50
2018-06-14T05:31:44.525Z,99.30
2018-06-14T05:34:12.998Z,99.40
2018-06-14T05:36:41.614Z,99.40
2018-06-14T05:39:12.046Z,99.60
2018-06-14T05:41:41.455Z,99.50
2018-06-14T05:44:10.124Z,99.20
2018-06-14T05:46:39.401Z,99.60
2018-06-14T05:49:07.997Z,99.20
2018-06-14T05:51:36.468Z,99.30
2018-06-14T05:54:04.901Z,99.10
2018-06-14T05:56:33.364Z,98.90
2018-06-14T05:59:01.814Z,99.10
2018-06-14T06:01:30.301Z,98.60
2018-06-14T06:03:58.892Z,98.90
2018-06-14T06:06:27.364Z,99.00
2018-06-14T06:11:24.249Z,98.80
2018-06-14T06:13:52.862Z,98.80
2018-06-14T06:16:21.332Z,99.00
2018-06-14T06:18:49.925Z,98.90
2018-06-14T06:21:18.358Z,98.80
2018-06-14T06:23:46.838Z,98.70
2018-06-14T06:26:15.567Z,98.90
2018-06-14T06:28:44.031Z,98.80
2018-06-14T06:31:12.699Z,98.70
2018-06-14T06:33:41.240Z,98.70
2018-06-14T06:36:09.745Z,98.50
2018-06-14T06:38:38.298Z,98.40
2018-06-14T06:41:06.963Z,98.40
2018-06-14T06:43:35.726Z,98.20
2018-06-14T06:46:04.226Z,97.80
2018-06-14T06:48:32.744Z,97.80
2018-06-14T06:51:01.329Z,97.80
2018-06-14T06:53:29.894Z,97.80
2018-06-14T06:55:58.619Z,97.80
2018-06-14T06:58:27.270Z,97.80
2018-06-14T07:03:23.945Z,97.60
2018-06-14T07:05:52.589Z,97.90
2018-06-14T07:08:21.068Z,97.30
2018-06-14T07:10:49.492Z,97.50
2018-06-14T07:13:18.062Z,97.50
2018-06-14T07:15:46.500Z,97.10
2018-06-14T07:18:15.017Z,97.50
2018-06-14T07:20:43.591Z,97.50
2018-06-14T07:23:12.231Z,97.50
2018-06-14T07:25:40.794Z,97.50
2018-06-14T07:28:09.399Z,97.40
2018-06-14T07:30:37.999Z,96.90
2018-06-14T07:33:06.453Z,96.90
2018-06-14T07:35:34.972Z,96.60
2018-06-14T07:38:03.453Z,96.90
2018-06-14T07:40:31.951Z,96.80
2018-06-14T07:43:00.516Z,96.90
2018-06-14T07:45:29.023Z,96.70
2018-06-14T07:47:58.401Z,96.90
2018-06-14T07:50:26.824Z,96.90
2018-06-14T07:52:55.311Z,96.60
2018-06-14T07:55:23.880Z,96.40
2018-06-14T07:57:52.373Z,96.30
2018-06-14T08:00:21.325Z,97.00
2018-06-14T08:02:49.759Z,96.60
2018-06-14T08:05:18.245Z,96.50
2018-06-14T08:07:46.666Z,96.10
2018-06-14T08:10:15.241Z,96.70
2018-06-14T08:12:43.741Z,96.60
2018-06-14T08:15:12.665Z,96.30
2018-06-14T08:17:41.226Z,96.00
2018-06-14T08:20:09.723Z,95.40
2018-06-14T08:22:38.695Z,95.70
2018-06-14T08:27:35.240Z,96.00
2018-06-14T08:30:03.773Z,95.50
2018-06-14T08:32:32.205Z,95.40
2018-06-14T08:35:00.817Z,95.40
2018-06-14T08:37:30.558Z,95.10
2018-06-14T08:39:59.582Z,94.90
2018-06-14T08:42:29.098Z,94.50
2018-06-14T08:44:57.936Z,94.60
2018-06-14T08:47:26.924Z,94.20
2018-06-14T08:49:55.830Z,94.60
2018-06-14T08:52:24.663Z,94.40
2018-06-14T08:54:53.446Z,93.80
2018-06-14T08:57:21.994Z,93.20
2018-06-14T08:59:50.712Z,93.50
2018-06-14T09:02:19.457Z,93.10
2018-06-14T09:04:48.012Z,93.20
2018-06-14T09:07:16.477Z,93.00
2018-06-14T09:09:44.892Z,92.70
2018-06-14T09:12:13.454Z,92.20
2018-06-14T09:14:41.931Z,91.70
2018-06-14T09:17:10.411Z,91.80
2018-06-14T09:22:07.268Z,91.20
2018-06-14T09:24:35.693Z,91.00
2018-06-14T09:27:04.612Z,90.70
2018-06-14T09:29:33.367Z,91.30
2018-06-14T09:32:02.069Z,90.70
2018-06-14T09:34:30.689Z,90.80
2018-06-14T09:36:59.415Z,90.50
2018-06-14T09:39:27.900Z,90.20
2018-06-14T09:41:56.338Z,90.20
2018-06-14T09:44:24.916Z,88.50
2018-06-14T09:46:53.439Z,89.90
2018-06-14T09:49:22.081Z,90.20
2018-06-14T09:51:51.013Z,89.50
2018-06-14T09:54:19.685Z,89.40
2018-06-14T09:56:48.227Z,90.70
2018-06-14T09:59:16.687Z,87.10
2018-06-14T10:01:45.168Z,87.70
2018-06-14T10:04:13.851Z,88.80
2018-06-14T10:06:42.395Z,88.70
2018-06-14T10:09:12.466Z,88.00
2018-06-14T10:11:41.190Z,88.00
2018-06-14T10:14:09.970Z,89.40
2018-06-14T10:16:38.467Z,88.60
2018-06-14T10:19:06.895Z,89.50
2018-06-14T10:21:35.333Z,87.10
2018-06-14T10:24:04.128Z,87.80
2018-06-14T10:26:32.774Z,86.70
2018-06-14T10:29:01.500Z,87.60
2018-06-14T10:31:30.045Z,88.50
2018-06-14T10:33:58.557Z,89.10
2018-06-14T10:36:27.081Z,89.50
2018-06-14T10:38:55.833Z,90.00
2018-06-14T10:52:38.602Z,89.90
2018-06-14T11:13:53.545Z,91.70
2018-06-14T11:16:43.839Z,91.40
2018-06-14T11:22:22.796Z,91.40
2018-06-14T11:25:09.700Z,91.40
2018-06-14T11:50:42.947Z,90.60
2018-06-14T11:53:12.079Z,90.50
2018-06-14T11:55:40.568Z,90.30
2018-06-14T11:58:09.320Z,90.30
2018-06-14T12:00:37.978Z,90.20
2018-06-14T12:03:06.558Z,90.40
2018-06-14T12:05:35.253Z,87.40
2018-06-14T12:08:03.910Z,88.50
2018-06-14T12:10:32.371Z,86.90
2018-06-14T12:13:00.839Z,86.90
2018-06-14T12:15:29.590Z,86.60
2018-06-14T12:17:58.009Z,86.40
2018-06-14T12:20:26.465Z,86.00
2018-06-14T12:22:55.033Z,85.30
2018-06-14T12:25:23.644Z,85.90
2018-06-14T12:27:52.373Z,84.50
2018-06-14T12:30:21.278Z,86.20
2018-06-14T12:32:49.734Z,85.00
2018-06-14T12:35:18.217Z,84.10
2018-06-14T12:37:46.785Z,82.90
2018-06-14T12:40:15.197Z,82.30
2018-06-14T12:42:43.697Z,83.80
2018-06-14T12:45:12.177Z,83.60
2018-06-14T12:47:41.063Z,82.10
2018-06-14T12:50:10.046Z,81.60
2018-06-14T12:52:38.718Z,83.60
2018-06-14T12:55:07.239Z,82.50
2018-06-14T12:57:36.032Z,82.80
2018-06-14T13:00:04.708Z,80.10
2018-06-14T13:02:33.196Z,82.70
2018-06-14T13:05:01.684Z,81.70
2018-06-14T13:07:30.177Z,80.50
2018-06-14T13:09:58.701Z,80.80
2018-06-14T13:12:27.268Z,79.90
2018-06-14T13:14:55.870Z,77.80
2018-06-14T13:17:24.878Z,80.20
2018-06-14T13:19:53.593Z,79.90
2018-06-14T13:22:22.208Z,81.70
2018-06-14T13:24:50.749Z,81.10
2018-06-14T13:27:19.441Z,82.10
2018-06-14T13:29:47.975Z,80.40
2018-06-14T13:32:16.475Z,80.00
2018-06-14T13:34:45.059Z,80.00
2018-06-14T13:37:13.757Z,79.40
2018-06-14T13:39:42.326Z,81.00
2018-06-14T13:42:10.885Z,79.40
2018-06-14T13:44:39.385Z,76.80
2018-06-14T13:47:08.128Z,77.00
2018-06-14T13:49:36.587Z,78.30
2018-06-14T13:52:05.834Z,77.80
2018-06-14T13:54:34.382Z,79.70
2018-06-14T13:57:02.991Z,79.80
2018-06-14T13:59:32.640Z,80.40
2018-06-14T14:02:01.531Z,77.60
2018-06-14T14:04:30.181Z,75.70
2018-06-14T14:07:04.886Z,74.90
2018-06-14T14:09:35.679Z,76.40
2018-06-14T14:12:04.226Z,75.60
2018-06-14T14:14:33.208Z,77.00
2018-06-14T14:17:01.694Z,76.30
2018-06-14T14:19:30.320Z,75.80
2018-06-14T14:21:59.421Z,75.00
2018-06-14T14:24:27.938Z,76.00
2018-06-14T14:26:56.838Z,75.90
2018-06-14T14:29:26.083Z,77.00
2018-06-14T14:31:54.875Z,76.30
2018-06-14T14:34:23.865Z,76.60
2018-06-14T14:36:52.724Z,76.30
2018-06-14T14:39:21.205Z,76.90
2018-06-14T14:41:49.918Z,77.00
2018-06-14T14:44:18.776Z,77.00
2018-06-14T14:49:15.732Z,77.10
2018-06-14T14:51:44.488Z,77.80
2018-06-14T14:54:13.300Z,78.20
2018-06-14T14:56:42.265Z,78.70
2018-06-14T14:59:10.987Z,78.60
2018-06-14T15:01:39.749Z,77.80
2018-06-14T15:04:08.437Z,78.40
2018-06-14T15:06:40.541Z,78.50
2018-06-14T15:09:15.677Z,78.60
2018-06-14T15:11:44.149Z,79.50
2018-06-14T15:14:12.595Z,81.00
2018-06-14T15:16:41.124Z,81.40
2018-06-14T15:19:09.552Z,79.30
2018-06-14T15:21:38.023Z,79.60
2018-06-14T15:24:06.560Z,80.30
2018-06-14T15:26:36.008Z,79.50
2018-06-14T15:29:04.490Z,79.00
2018-06-14T15:31:32.955Z,78.80
2018-06-14T15:34:01.365Z,77.80
2018-06-14T15:36:29.816Z,77.70
2018-06-14T15:38:58.312Z,79.30
2018-06-14T15:41:27.213Z,79.40
2018-06-14T15:43:55.700Z,78.80
2018-06-14T15:46:24.178Z,80.10
2018-06-14T15:48:52.746Z,81.00
2018-06-14T15:51:21.282Z,79.50
2018-06-14T15:53:49.746Z,79.10
2018-06-14T15:56:42.427Z,80.10
2018-06-14T15:59:13.182Z,79.60
2018-06-14T16:04:12.798Z,78.60
2018-06-14T16:06:41.293Z,78.20
2018-06-14T16:09:10.924Z,78.80
2018-06-14T16:11:39.357Z,78.70
2018-06-14T16:14:08.453Z,81.00
2018-06-14T16:16:36.898Z,82.80
2018-06-14T16:19:05.570Z,84.10
2018-06-14T16:21:34.571Z,85.10
2018-06-14T16:24:03.092Z,85.60
2018-06-14T16:26:31.612Z,85.90
2018-06-14T16:29:00.202Z,85.00
2018-06-14T16:31:28.677Z,85.60
2018-06-14T16:33:57.153Z,85.90
2018-06-14T16:36:25.689Z,86.50
2018-06-14T16:38:54.173Z,86.40
2018-06-14T16:41:22.668Z,86.70
2018-06-14T16:43:51.226Z,87.20
2018-06-14T16:46:19.732Z,87.00
2018-06-14T16:48:48.206Z,88.20
2018-06-14T16:51:17.415Z,87.90
2018-06-14T16:53:46.034Z,87.80
2018-06-14T16:56:14.490Z,88.20
2018-06-14T16:58:42.969Z,89.70
2018-06-14T17:01:11.495Z,89.50
2018-06-14T17:03:40.477Z,88.20
2018-06-14T17:06:09.006Z,89.20
2018-06-14T17:08:37.458Z,90.10
2018-06-14T17:11:06.003Z,90.30
2018-06-14T17:13:34.454Z,89.80
2018-06-14T17:16:03.065Z,90.00
2018-06-14T17:18:31.489Z,90.10
2018-06-14T17:21:03.633Z,90.10
2018-06-14T17:23:32.539Z,90.40
2018-06-14T17:26:02.029Z,90.70
2018-06-14T17:28:30.740Z,90.30
2018-06-14T17:30:59.168Z,90.30
2018-06-14T17:33:27.656Z,90.50
2018-06-14T17:35:56.106Z,90.60
2018-06-14T17:38:24.575Z,91.00
2018-06-14T17:40:53.086Z,89.90
2018-06-14T17:43:21.614Z,89.30
2018-06-14T17:45:50.157Z,87.70
2018-06-14T17:48:18.815Z,85.40
2018-06-14T17:50:47.293Z,86.50
2018-06-14T17:53:15.783Z,86.30
2018-06-14T17:55:44.320Z,86.10
2018-06-14T17:58:12.780Z,85.40
2018-06-14T18:00:41.229Z,84.30
2018-06-14T18:03:09.739Z,84.50
2018-06-14T18:05:38.246Z,84.30
2018-06-14T18:08:06.716Z,84.30
2018-06-14T18:10:35.188Z,83.90
2018-06-14T18:13:03.704Z,84.00
2018-06-14T18:15:32.133Z,83.60
2018-06-14T18:18:00.650Z,83.30
2018-06-14T18:20:29.214Z,82.30
2018-06-14T18:22:57.667Z,82.60
2018-06-14T18:25:26.112Z,81.30
2018-06-14T18:27:54.619Z,81.80
2018-06-14T18:30:23.054Z,82.30
2018-06-14T18:35:19.801Z,82.40
2018-06-14T18:37:48.342Z,82.20
2018-06-14T18:40:16.825Z,82.90
2018-06-14T18:42:45.273Z,83.20
2018-06-14T18:45:13.852Z,83.60
2018-06-14T18:47:42.288Z,83.90
2018-06-14T18:50:10.724Z,84.40
2018-06-14T18:52:39.238Z,84.90
2018-06-14T18:55:07.695Z,85.10
2018-06-14T18:57:36.194Z,85.50
2018-06-14T19:00:05.099Z,85.60
2018-06-14T19:02:33.576Z,85.50
2018-06-14T19:05:02.104Z,86.10
2018-06-14T19:07:30.612Z,86.00
2018-06-14T19:09:59.085Z,86.90
2018-06-14T19:12:27.572Z,86.90
2018-06-14T19:14:56.071Z,87.30
2018-06-14T19:17:24.631Z,87.80
2018-06-14T19:19:53.113Z,87.80
2018-06-14T19:22:21.613Z,88.00
2018-06-14T19:24:50.181Z,88.20
2018-06-14T19:27:18.648Z,88.30
2018-06-14T19:29:47.146Z,88.70
2018-06-14T19:32:15.883Z,88.30
2018-06-14T19:34:44.409Z,88.70
2018-06-14T19:37:12.913Z,88.70
2018-06-14T19:39:41.396Z,88.90
2018-06-14T19:42:09.851Z,89.10
2018-06-14T19:44:38.345Z,89.50
2018-06-14T19:47:06.820Z,89.60
2018-06-14T19:49:35.310Z,89.70
2018-06-14T19:52:03.920Z,90.00
2018-06-14T19:54:32.433Z,89.80
2018-06-14T19:57:00.914Z,90.10
2018-06-14T19:59:29.458Z,90.10
2018-06-14T20:01:57.961Z,90.30
2018-06-14T20:04:26.554Z,90.30
2018-06-14T20:15:31.172Z,90.60
2018-06-14T20:17:59.725Z,90.70
2018-06-14T20:20:28.362Z,90.70
2018-06-14T20:22:56.847Z,90.80
2018-06-14T20:25:25.342Z,90.90
2018-06-14T20:27:54.027Z,90.90
2018-06-14T20:30:22.548Z,91.00
2018-06-14T20:32:51.049Z,91.20
2018-06-14T20:35:19.532Z,91.20
2018-06-14T20:37:48.025Z,91.30
2018-06-14T20:40:16.818Z,91.50
2018-06-14T20:45:13.458Z,91.60
2018-06-14T20:47:41.964Z,91.60
2018-06-14T20:50:10.425Z,91.60
2018-06-14T20:52:38.929Z,91.70
2018-06-14T20:55:07.617Z,91.70
2018-06-14T20:57:36.385Z,91.80
2018-06-14T21:00:04.938Z,91.70
2018-06-14T21:02:33.436Z,91.70
2018-06-14T21:05:01.949Z,91.90
2018-06-14T21:07:30.401Z,91.90
2018-06-14T21:09:58.989Z,92.00
2018-06-14T21:12:27.835Z,92.10
2018-06-14T21:14:56.286Z,92.00
2018-06-14T21:19:53.321Z,92.30
2018-06-14T21:22:21.761Z,92.20
2018-06-14T21:24:50.305Z,92.30
2018-06-14T21:27:18.794Z,92.20
2018-06-14T21:29:47.252Z,92.20
2018-06-14T21:32:15.757Z,92.40
2018-06-14T21:34:44.239Z,92.40
2018-06-14T21:37:12.737Z,92.40
2018-06-14T21:39:41.352Z,92.40
2018-06-14T21:42:09.800Z,92.40
2018-06-14T21:44:38.253Z,92.40
2018-06-14T21:47:06.706Z,92.40
2018-06-14T21:49:35.151Z,92.40
2018-06-14T21:52:03.742Z,92.40
2018-06-14T21:54:32.204Z,92.30
2018-06-14T21:59:28.968Z,92.30
2018-06-14T22:01:57.438Z,92.20
2018-06-14T22:04:25.894Z,92.20
2018-06-14T22:06:54.382Z,92.10
2018-06-14T22:09:22.836Z,92.10
2018-06-14T22:11:51.301Z,92.00
2018-06-14T22:14:19.802Z,92.10
2018-06-14T22:16:48.262Z,92.00
2018-06-14T22:19:16.733Z,91.90
2018-06-14T22:21:45.244Z,91.90
2018-06-14T22:24:13.688Z,91.80
2018-06-14T22:26:42.148Z,91.70
2018-06-14T22:29:10.594Z,91.60
2018-06-14T22:31:39.088Z,91.40
2018-06-14T22:34:18.695Z,91.50
2018-06-14T22:36:47.198Z,91.30
2018-06-14T22:39:15.674Z,91.30
2018-06-14T22:41:44.126Z,91.20
2018-06-14T22:44:12.735Z,91.30
2018-06-14T22:46:41.184Z,91.00
2018-06-14T22:49:09.712Z,91.00
2018-06-14T22:51:59.884Z,91.00
2018-06-14T22:54:28.367Z,91.00
2018-06-14T22:56:56.898Z,91.10
2018-06-14T22:59:25.448Z,91.20
2018-06-14T23:01:53.889Z,91.00
2018-06-14T23:04:24.402Z,90.90
2018-06-14T23:06:52.976Z,91.10
2018-06-14T23:10:37.597Z,90.90
2018-06-14T23:13:10.291Z,90.70
2018-06-14T23:18:39.197Z,90.90
2018-06-14T23:21:20.528Z,91.00
2018-06-14T23:29:30.918Z,91.30
2018-06-14T23:32:13.675Z,91.30
2018-06-14T23:34:47.304Z,91.50
2018-06-14T23:37:28.245Z,91.80
2018-06-14T23:43:01.235Z,92.00
2018-06-14T23:45:45.675Z,92.00
2018-06-14T23:48:19.866Z,92.10
2018-06-14T23:50:58.773Z,92.20
2018-06-14T23:53:36.126Z,92.30
2018-06-14T23:56:12.886Z,92.40
2018-06-14T23:59:02.745Z,92.40
